createdAt,value
2024-01-06T00:00:41.077Z,5.25
2024-01-06T00:03:08.208Z,6.90
2024-01-06T00:05:35.326Z,7.07
2024-01-06T00:08:02.357Z,5.78
2024-01-06T00:10:29.451Z,4.97
2024-01-06T00:12:56.536Z,9.15
2024-01-06T00:15:23.609Z,7.70
2024-01-06T00:17:50.706Z,5.45
2024-01-06T00:20:17.727Z,7.40
2024-01-06T00:22:46.113Z,6.18
2024-01-06T00:25:13.223Z,5.15
2024-01-06T00:27:40.265Z,5.57
2024-01-06T00:30:07.905Z,8.57
2024-01-06T00:32:38.017Z,3.65
2024-01-06T00:35:05.923Z,5.38
2024-01-06T00:37:33.058Z,7.90
2024-01-06T00:40:00.808Z,2.78
2024-01-06T00:42:27.925Z,7.60
2024-01-06T00:44:54.952Z,3.35
2024-01-06T00:47:25.040Z,8.73
2024-01-06T00:49:52.156Z,9.10
2024-01-06T00:52:19.249Z,4.45
2024-01-06T00:54:47.562Z,8.68
2024-01-06T00:57:14.892Z,4.85
2024-01-06T00:59:41.916Z,2.97
2024-01-06T01:02:08.932Z,3.97
2024-01-06T01:04:36.389Z,5.97
2024-01-06T01:07:04.073Z,8.52
2024-01-06T01:09:31.179Z,7.50
2024-01-06T01:11:58.292Z,3.95
2024-01-06T01:14:25.351Z,9.82
2024-01-06T01:16:52.398Z,5.45
2024-01-06T01:19:19.558Z,5.60
2024-01-06T01:21:46.686Z,7.38
2024-01-06T01:24:13.801Z,6.57
2024-01-06T01:26:40.840Z,7.10
2024-01-06T01:29:07.913Z,4.78
2024-01-06T01:31:35.592Z,5.65
2024-01-06T01:34:03.405Z,5.40
2024-01-06T01:36:30.690Z,8.77
2024-01-06T01:38:57.758Z,2.78
2024-01-06T01:41:26.120Z,7.25
2024-01-06T01:43:59.176Z,4.82
2024-01-06T01:46:30.288Z,8.32
2024-01-06T01:48:59.033Z,3.25
2024-01-06T01:51:32.459Z,7.10
2024-01-06T01:54:01.671Z,5.00
2024-01-06T01:56:30.558Z,8.68
2024-01-06T01:58:58.417Z,4.30
2024-01-06T02:01:25.614Z,4.82
2024-01-06T02:03:53.714Z,10.48
2024-01-06T02:06:20.804Z,2.55
2024-01-06T02:08:47.862Z,5.95
2024-01-06T02:11:14.908Z,4.18
2024-01-06T02:13:41.957Z,9.95
2024-01-06T02:16:09.013Z,5.53
2024-01-06T02:18:36.636Z,7.25
2024-01-06T02:21:04.320Z,4.53
2024-01-06T02:23:32.000Z,5.85
2024-01-06T02:25:59.025Z,7.45
2024-01-06T02:28:26.059Z,10.93
2024-01-06T02:30:53.220Z,3.13
2024-01-06T02:33:20.703Z,8.05
2024-01-06T02:35:47.952Z,5.38
2024-01-06T02:38:15.104Z,6.75
2024-01-06T02:40:43.769Z,3.20
2024-01-06T02:43:11.297Z,6.30
2024-01-06T02:45:38.493Z,3.63
2024-01-06T02:48:06.211Z,2.65
2024-01-06T02:50:33.469Z,4.07
2024-01-06T02:53:00.538Z,7.72
2024-01-06T02:55:27.614Z,13.65
2024-01-06T02:57:54.769Z,6.75
2024-01-06T03:00:21.970Z,3.08
2024-01-06T03:02:49.121Z,6.40
2024-01-06T03:05:16.401Z,12.85
2024-01-06T03:07:43.482Z,9.32
2024-01-06T03:10:10.688Z,4.40
2024-01-06T03:12:37.759Z,4.95
2024-01-06T03:15:05.244Z,3.67
2024-01-06T03:17:32.416Z,7.65
2024-01-06T03:19:59.541Z,2.78
2024-01-06T03:22:26.611Z,12.32
2024-01-06T03:24:53.712Z,5.07
2024-01-06T03:27:21.074Z,5.72
2024-01-06T03:29:48.708Z,3.40
2024-01-06T03:32:15.766Z,3.22
2024-01-06T03:34:42.993Z,5.32
2024-01-06T03:37:10.271Z,3.30
2024-01-06T03:39:37.430Z,11.25
2024-01-06T03:42:04.956Z,6.53
2024-01-06T03:44:34.500Z,5.28
2024-01-06T03:47:02.354Z,5.25
2024-01-06T03:49:29.650Z,7.63
2024-01-06T03:51:56.904Z,5.78
2024-01-06T03:54:24.135Z,10.63
2024-01-06T03:56:51.215Z,1.75
2024-01-06T03:59:18.304Z,2.78
2024-01-06T04:01:45.401Z,5.25
2024-01-06T04:04:12.570Z,5.22
2024-01-06T04:06:39.770Z,4.07
2024-01-06T04:09:07.102Z,5.07
2024-01-06T04:11:34.288Z,2.78
2024-01-06T04:14:01.350Z,4.80
2024-01-06T04:16:29.016Z,4.60
2024-01-06T04:18:56.216Z,4.97
2024-01-06T04:21:23.493Z,3.63
2024-01-06T04:23:50.827Z,8.13
2024-01-06T04:26:17.844Z,7.90
2024-01-06T04:28:44.912Z,5.93
2024-01-06T04:31:12.735Z,8.27
2024-01-06T04:33:41.636Z,5.97
2024-01-06T04:36:09.047Z,5.00
2024-01-06T04:38:36.649Z,8.18
2024-01-06T04:41:03.885Z,2.10
2024-01-06T04:43:30.993Z,5.05
2024-01-06T04:45:59.045Z,2.40
2024-01-06T04:48:27.019Z,3.13
2024-01-06T04:50:54.242Z,3.47
2024-01-06T04:53:21.309Z,7.32
2024-01-06T04:55:48.456Z,3.83
2024-01-06T04:58:15.546Z,6.00
2024-01-06T05:00:42.787Z,4.75
2024-01-06T05:03:10.082Z,6.35
2024-01-06T05:05:37.292Z,3.53
2024-01-06T05:08:04.766Z,4.63
2024-01-06T05:10:31.833Z,3.30
2024-01-06T05:12:59.099Z,6.75
2024-01-06T05:15:27.773Z,8.13
2024-01-06T05:17:55.127Z,4.00
2024-01-06T05:20:22.263Z,6.40
2024-01-06T05:22:49.335Z,7.35
2024-01-06T05:25:16.516Z,5.22
2024-01-06T05:27:43.624Z,9.18
2024-01-06T05:30:11.690Z,12.25
2024-01-06T05:32:39.555Z,3.22
2024-01-06T05:35:07.277Z,5.32
2024-01-06T05:37:34.574Z,8.27
2024-01-06T05:40:04.374Z,4.82
2024-01-06T05:42:31.568Z,3.92
2024-01-06T05:44:58.666Z,5.35
2024-01-06T05:47:25.793Z,5.47
2024-01-06T05:49:52.885Z,5.97
2024-01-06T05:52:19.971Z,6.47
2024-01-06T05:54:47.084Z,7.38
2024-01-06T05:57:14.184Z,7.15
2024-01-06T05:59:41.708Z,5.07
2024-01-06T06:02:08.855Z,4.53
2024-01-06T06:04:36.947Z,7.70
2024-01-06T06:07:04.395Z,7.45
2024-01-06T06:09:31.521Z,6.55
2024-01-06T06:11:58.598Z,6.30
2024-01-06T06:14:29.112Z,5.90
2024-01-06T06:16:58.259Z,5.10
2024-01-06T06:19:25.550Z,8.13
2024-01-06T06:21:53.681Z,6.00
2024-01-06T06:24:20.897Z,13.05
2024-01-06T06:26:48.162Z,6.72
2024-01-06T06:29:15.381Z,4.40
2024-01-06T06:31:44.195Z,5.70
2024-01-06T06:34:11.906Z,7.65
2024-01-06T06:36:39.451Z,7.43
2024-01-06T06:39:06.585Z,4.88
2024-01-06T06:41:33.690Z,4.68
2024-01-06T06:44:01.504Z,4.25
2024-01-06T06:46:28.572Z,6.03
2024-01-06T06:48:56.346Z,4.13
2024-01-06T06:51:26.293Z,4.32
2024-01-06T06:53:53.595Z,4.47
2024-01-06T06:56:20.881Z,3.75
2024-01-06T06:58:47.944Z,10.95
2024-01-06T07:01:17.030Z,4.80
2024-01-06T07:03:44.258Z,4.22
2024-01-06T07:06:15.606Z,4.07
2024-01-06T07:08:43.309Z,3.35
2024-01-06T07:11:12.448Z,11.13
2024-01-06T07:13:39.639Z,6.28
2024-01-06T07:16:14.615Z,4.57
2024-01-06T07:18:45.701Z,11.18
2024-01-06T07:21:14.128Z,5.00
2024-01-06T07:23:41.255Z,7.57
2024-01-06T07:26:09.283Z,6.35
2024-01-06T07:28:36.775Z,5.10
2024-01-06T07:31:05.880Z,9.40
2024-01-06T07:33:33.339Z,3.80
2024-01-06T07:36:00.515Z,5.50
2024-01-06T07:38:27.583Z,4.60
2024-01-06T07:40:55.671Z,5.55
2024-01-06T07:43:22.708Z,6.47
2024-01-06T07:45:50.340Z,5.25
2024-01-06T07:48:18.418Z,4.60
2024-01-06T07:50:46.642Z,6.25
2024-01-06T07:53:15.088Z,4.68
2024-01-06T07:55:42.315Z,6.15
2024-01-06T07:58:09.428Z,4.20
2024-01-06T08:00:37.096Z,7.13
2024-01-06T08:03:07.014Z,6.80
2024-01-06T08:05:34.207Z,6.00
2024-01-06T08:08:01.784Z,4.22
2024-01-06T08:10:29.549Z,5.18
2024-01-06T08:12:56.854Z,5.45
2024-01-06T08:15:24.009Z,5.78
2024-01-06T08:17:51.258Z,6.93
2024-01-06T08:20:18.523Z,7.70
2024-01-06T08:22:46.872Z,5.13
2024-01-06T08:25:14.612Z,6.30
2024-01-06T08:27:41.709Z,8.32
2024-01-06T08:30:09.383Z,6.70
2024-01-06T08:32:37.058Z,5.15
2024-01-06T08:35:04.880Z,3.70
2024-01-06T08:37:31.953Z,4.15
2024-01-06T08:39:59.105Z,5.18
2024-01-06T08:42:27.165Z,6.93
2024-01-06T08:44:54.365Z,10.80
2024-01-06T08:47:22.320Z,10.43
2024-01-06T08:49:49.520Z,5.22
2024-01-06T08:52:16.741Z,4.35
2024-01-06T08:54:43.803Z,7.70
2024-01-06T08:57:11.917Z,6.75
2024-01-06T08:59:39.994Z,4.13
2024-01-06T09:02:07.225Z,6.43
2024-01-06T09:04:34.501Z,5.25
2024-01-06T09:07:02.065Z,6.45
2024-01-06T09:09:29.382Z,4.78
2024-01-06T09:11:56.439Z,5.03
2024-01-06T09:14:24.215Z,3.47
2024-01-06T09:16:51.334Z,5.30
2024-01-06T09:19:18.624Z,7.07
2024-01-06T09:21:46.050Z,9.73
2024-01-06T09:24:13.334Z,6.55
2024-01-06T09:26:40.474Z,4.00
2024-01-06T09:29:07.533Z,7.75
2024-01-06T09:31:35.263Z,5.95
2024-01-06T09:34:03.817Z,8.75
2024-01-06T09:36:32.190Z,6.63
2024-01-06T09:38:59.377Z,6.35
2024-01-06T09:41:26.461Z,7.53
2024-01-06T09:43:53.691Z,7.30
2024-01-06T09:46:32.704Z,13.50
2024-01-06T09:49:00.120Z,5.53
2024-01-06T09:51:28.588Z,7.90
2024-01-06T09:54:00.082Z,7.32
2024-01-06T09:56:29.012Z,7.47
2024-01-06T09:58:57.314Z,7.97
2024-01-06T10:01:25.004Z,7.10
2024-01-06T10:03:52.536Z,7.43
2024-01-06T10:06:21.291Z,6.95
2024-01-06T10:08:53.366Z,5.82
2024-01-06T10:11:22.891Z,6.47
2024-01-06T10:13:53.518Z,7.78
2024-01-06T10:16:21.151Z,5.03
2024-01-06T10:18:52.876Z,5.80
2024-01-06T10:21:26.429Z,5.40
2024-01-06T10:23:55.727Z,4.38
2024-01-06T10:26:23.118Z,6.28
2024-01-06T10:28:51.450Z,4.93
2024-01-06T10:31:19.220Z,5.97
2024-01-06T10:33:46.568Z,4.45
2024-01-06T10:36:14.016Z,5.63
2024-01-06T10:38:41.574Z,7.22
2024-01-06T10:41:08.968Z,6.28
2024-01-06T10:43:39.736Z,7.32
2024-01-06T10:46:11.151Z,7.55
2024-01-06T10:48:43.789Z,6.57
2024-01-06T10:51:12.696Z,7.63
2024-01-06T10:53:42.087Z,12.00
2024-01-06T10:56:11.659Z,9.80
2024-01-06T10:58:46.032Z,9.13
2024-01-06T11:01:16.537Z,10.13
2024-01-06T11:03:46.738Z,6.90
2024-01-06T11:06:14.280Z,10.02
2024-01-06T11:09:12.309Z,7.32
2024-01-06T11:11:40.711Z,11.50
2024-01-06T11:14:27.133Z,8.77
2024-01-06T11:16:55.698Z,9.57
2024-01-06T11:19:35.521Z,10.40
2024-01-06T11:22:40.798Z,10.45
2024-01-06T11:25:09.914Z,12.68
2024-01-06T11:27:37.587Z,8.25
2024-01-06T11:30:09.116Z,9.50
2024-01-06T11:32:39.826Z,10.95
2024-01-06T11:35:17.369Z,14.50
2024-01-06T11:37:44.524Z,9.00
2024-01-06T11:40:22.966Z,9.93
2024-01-06T11:43:10.570Z,9.63
2024-01-06T11:45:41.348Z,7.20
2024-01-06T11:48:10.791Z,9.93
2024-01-06T11:50:40.460Z,8.30
2024-01-06T11:53:10.929Z,7.63
2024-01-06T11:55:41.276Z,9.45
2024-01-06T11:58:08.676Z,9.20
2024-01-06T12:00:40.839Z,9.85
2024-01-06T12:03:08.980Z,14.48
2024-01-06T12:05:36.860Z,9.77
2024-01-06T12:08:07.847Z,9.95
2024-01-06T12:10:35.401Z,10.52
2024-01-06T12:13:05.796Z,11.35
2024-01-06T12:15:34.131Z,11.60
2024-01-06T12:18:04.671Z,11.40
2024-01-06T12:20:32.476Z,10.05
2024-01-06T12:23:01.300Z,11.75
2024-01-06T12:25:30.236Z,9.68
2024-01-06T12:27:57.544Z,9.73
2024-01-06T12:30:25.391Z,10.20
2024-01-06T12:32:55.594Z,10.75
2024-01-06T12:35:23.781Z,9.02
2024-01-06T12:37:52.408Z,14.07
2024-01-06T12:40:20.982Z,12.70
2024-01-06T12:42:48.325Z,12.15
2024-01-06T12:45:17.358Z,12.75
2024-01-06T12:47:45.172Z,11.98
2024-01-06T12:50:13.977Z,14.20
2024-01-06T12:52:41.331Z,11.77
2024-01-06T12:55:09.228Z,19.00
2024-01-06T12:57:37.551Z,17.75
2024-01-06T13:00:10.270Z,16.13
2024-01-06T13:02:38.165Z,20.92
2024-01-06T13:05:05.754Z,19.77
2024-01-06T13:07:33.074Z,20.10
2024-01-06T13:10:00.957Z,20.90
2024-01-06T13:12:30.275Z,18.98
2024-01-06T13:14:57.740Z,22.75
2024-01-06T13:17:24.791Z,20.30
2024-01-06T13:19:51.893Z,20.80
2024-01-06T13:22:21.588Z,21.83
2024-01-06T13:24:50.798Z,20.80
2024-01-06T13:27:18.958Z,29.55
2024-01-06T13:29:46.018Z,23.67
2024-01-06T13:32:14.572Z,27.08
2024-01-06T13:34:42.295Z,23.27
2024-01-06T13:37:09.490Z,18.77
2024-01-06T13:39:37.591Z,19.23
2024-01-06T13:42:05.850Z,14.30
2024-01-06T13:44:33.010Z,10.23
2024-01-06T13:47:00.121Z,12.02
2024-01-06T13:49:27.614Z,11.32
2024-01-06T13:51:54.961Z,11.25
2024-01-06T13:54:22.100Z,13.95
2024-01-06T13:56:49.292Z,8.63
2024-01-06T13:59:17.808Z,11.73
2024-01-06T14:01:45.071Z,12.82
2024-01-06T14:04:13.092Z,10.43
2024-01-06T14:06:41.159Z,10.93
2024-01-06T14:09:09.335Z,10.32
2024-01-06T14:11:37.418Z,10.43
2024-01-06T14:14:04.576Z,14.77
2024-01-06T14:16:31.945Z,11.82
2024-01-06T14:18:59.336Z,10.38
2024-01-06T14:21:26.509Z,10.50
2024-01-06T14:23:53.581Z,10.27
2024-01-06T14:26:24.806Z,10.88
2024-01-06T14:28:51.971Z,12.40
2024-01-06T14:31:19.373Z,15.80
2024-01-06T14:33:46.833Z,11.32
2024-01-06T14:36:14.188Z,12.68
2024-01-06T14:38:41.351Z,9.68
2024-01-06T14:41:08.411Z,12.45
2024-01-06T14:43:35.474Z,10.68
2024-01-06T14:46:03.699Z,12.45
2024-01-06T14:48:31.119Z,8.48
2024-01-06T14:50:58.415Z,13.50
2024-01-06T14:53:25.468Z,10.40
2024-01-06T14:55:52.507Z,9.35
2024-01-06T14:58:19.583Z,10.02
2024-01-06T15:00:47.375Z,10.07
2024-01-06T15:03:15.555Z,11.02
2024-01-06T15:05:42.711Z,9.95
2024-01-06T15:08:09.797Z,9.77
2024-01-06T15:10:37.383Z,10.27
2024-01-06T15:13:05.376Z,7.97
2024-01-06T15:15:32.541Z,9.77
2024-01-06T15:17:59.937Z,9.35
2024-01-06T15:20:28.557Z,8.57
2024-01-06T15:22:55.578Z,7.78
2024-01-06T15:25:22.802Z,6.85
2024-01-06T15:27:50.733Z,7.93
2024-01-06T15:30:19.072Z,8.95
2024-01-06T15:32:47.910Z,8.48
2024-01-06T15:35:15.155Z,9.18
2024-01-06T15:37:42.242Z,6.88
2024-01-06T15:40:10.528Z,9.95
2024-01-06T15:42:37.796Z,6.90
2024-01-06T15:45:05.591Z,7.45
2024-01-06T15:47:32.688Z,7.63
2024-01-06T15:50:01.067Z,7.32
2024-01-06T15:52:28.225Z,7.38
2024-01-06T15:54:55.468Z,8.77
2024-01-06T15:57:22.703Z,7.97
2024-01-06T15:59:49.801Z,9.35
2024-01-06T16:02:16.820Z,11.45
2024-01-06T16:04:43.918Z,7.75
2024-01-06T16:07:11.321Z,10.35
2024-01-06T16:09:38.636Z,9.95
2024-01-06T16:12:07.105Z,8.50
2024-01-06T16:14:37.499Z,9.77
2024-01-06T16:17:04.980Z,9.98
2024-01-06T16:19:33.337Z,9.38
2024-01-06T16:22:17.582Z,17.77
2024-01-06T16:25:28.840Z,9.10
2024-01-06T16:27:57.544Z,7.07
2024-01-06T16:30:24.853Z,13.63
2024-01-06T16:33:10.371Z,13.07
2024-01-06T16:35:38.652Z,8.05
2024-01-06T16:38:11.104Z,8.88
2024-01-06T16:40:38.264Z,8.57
2024-01-06T16:43:05.465Z,6.68
2024-01-06T16:45:33.066Z,13.02
2024-01-06T16:48:00.404Z,29.02
2024-01-06T16:50:27.804Z,22.52
2024-01-06T16:52:55.287Z,14.52
2024-01-06T16:55:22.772Z,11.20
2024-01-06T16:57:49.967Z,7.50
2024-01-06T17:00:19.440Z,10.55
2024-01-06T17:02:47.309Z,7.90
2024-01-06T17:05:14.499Z,11.13
2024-01-06T17:07:45.527Z,8.82
2024-01-06T17:10:14.861Z,8.32
2024-01-06T17:12:42.370Z,7.57
2024-01-06T17:15:10.256Z,7.25
2024-01-06T17:17:41.083Z,11.77
2024-01-06T17:20:11.719Z,9.52
2024-01-06T17:22:39.571Z,8.50
2024-01-06T17:25:10.721Z,11.93
2024-01-06T17:27:39.002Z,9.18
2024-01-06T17:30:06.747Z,13.13
2024-01-06T17:32:34.375Z,15.52
2024-01-06T17:35:01.753Z,12.20
2024-01-06T17:37:30.633Z,14.02
2024-01-06T17:39:58.378Z,19.63
2024-01-06T17:42:30.521Z,14.30
2024-01-06T17:45:08.142Z,17.48
2024-01-06T17:47:54.800Z,14.32
2024-01-06T17:50:28.646Z,19.33
2024-01-06T17:53:00.055Z,12.88
2024-01-06T17:55:27.594Z,12.18
2024-01-06T17:57:55.375Z,12.68
2024-01-06T18:00:23.081Z,16.05
2024-01-06T18:02:50.263Z,18.30
2024-01-06T18:05:17.968Z,22.65
2024-01-06T18:07:45.233Z,16.67
2024-01-06T18:10:13.350Z,13.73
2024-01-06T18:12:42.307Z,14.85
2024-01-06T18:15:10.139Z,16.50
2024-01-06T18:17:39.502Z,21.40
2024-01-06T18:20:08.043Z,14.63
2024-01-06T18:22:35.399Z,12.77
2024-01-06T18:25:02.677Z,13.82
2024-01-06T18:27:31.137Z,12.52
2024-01-06T18:29:58.421Z,15.35
2024-01-06T18:32:25.548Z,11.70
2024-01-06T18:34:52.918Z,12.10
2024-01-06T18:37:20.521Z,12.07
2024-01-06T18:39:47.619Z,9.93
2024-01-06T18:42:15.099Z,11.30
2024-01-06T18:44:42.437Z,8.32
2024-01-06T18:47:10.507Z,11.15
2024-01-06T18:49:37.810Z,9.30
2024-01-06T18:52:05.173Z,7.53
2024-01-06T18:54:38.290Z,6.93
2024-01-06T18:57:09.890Z,9.60
2024-01-06T18:59:37.650Z,10.85
2024-01-06T19:02:07.819Z,7.63
2024-01-06T19:04:35.127Z,7.97
2024-01-06T19:07:02.382Z,9.90
2024-01-06T19:09:30.975Z,8.65
2024-01-06T19:11:59.319Z,15.30
2024-01-06T19:14:26.609Z,10.98
2024-01-06T19:16:53.725Z,7.75
2024-01-06T19:19:22.569Z,7.20
2024-01-06T19:21:50.757Z,40.45
2024-01-06T19:24:27.570Z,23.73
2024-01-06T19:27:00.545Z,10.77
2024-01-06T19:29:29.433Z,13.15
2024-01-06T19:31:58.309Z,11.27
2024-01-06T19:34:25.555Z,7.05
2024-01-06T19:36:53.017Z,14.68
2024-01-06T19:39:20.239Z,11.55
2024-01-06T19:41:48.408Z,11.50
2024-01-06T19:44:16.540Z,10.75
2024-01-06T19:46:44.183Z,8.38
2024-01-06T19:49:11.496Z,7.43
2024-01-06T19:51:38.653Z,6.15
2024-01-06T19:54:07.065Z,5.07
2024-01-06T19:56:35.269Z,11.13
2024-01-06T19:59:02.390Z,19.58
2024-01-06T20:01:29.513Z,6.78
2024-01-06T20:03:56.721Z,17.02
2024-01-06T20:06:23.933Z,6.60
2024-01-06T20:08:51.008Z,19.55
2024-01-06T20:11:18.078Z,13.88
2024-01-06T20:13:45.148Z,10.50
2024-01-06T20:16:12.291Z,9.50
2024-01-06T20:18:39.511Z,6.82
2024-01-06T20:21:07.157Z,17.83
2024-01-06T20:23:34.586Z,10.07
2024-01-06T20:26:02.655Z,7.53
2024-01-06T20:28:30.413Z,14.98
2024-01-06T20:30:57.679Z,7.70
2024-01-06T20:33:25.277Z,8.60
2024-01-06T20:35:52.671Z,7.03
2024-01-06T20:38:21.245Z,4.45
2024-01-06T20:40:49.697Z,12.35
2024-01-06T20:43:16.745Z,8.80
2024-01-06T20:45:45.219Z,9.20
2024-01-06T20:48:12.464Z,7.07
2024-01-06T20:50:39.583Z,5.47
2024-01-06T20:53:06.661Z,13.50
2024-01-06T20:55:33.709Z,10.45
2024-01-06T20:58:00.909Z,5.22
2024-01-06T21:00:32.662Z,4.85
2024-01-06T21:03:02.171Z,6.95
2024-01-06T21:05:30.756Z,4.82
2024-01-06T21:07:57.900Z,6.00
2024-01-06T21:10:25.874Z,6.28
2024-01-06T21:12:52.991Z,14.63
2024-01-06T21:15:20.106Z,6.72
2024-01-06T21:17:48.275Z,11.60
2024-01-06T21:20:15.467Z,6.43
2024-01-06T21:22:43.839Z,4.97
2024-01-06T21:25:10.955Z,7.93
2024-01-06T21:27:38.217Z,6.47
2024-01-06T21:30:07.003Z,7.57
2024-01-06T21:32:34.525Z,6.22
2024-01-06T21:35:04.700Z,11.60
2024-01-06T21:37:34.650Z,9.25
2024-01-06T21:40:07.638Z,7.93
2024-01-06T21:42:40.056Z,5.32
2024-01-06T21:45:07.421Z,6.22
2024-01-06T21:47:34.592Z,7.68
2024-01-06T21:50:02.343Z,7.13
2024-01-06T21:52:29.472Z,7.15
2024-01-06T21:54:56.534Z,6.35
2024-01-06T21:57:23.596Z,6.65
2024-01-06T21:59:50.680Z,6.75
2024-01-06T22:02:17.693Z,6.47
2024-01-06T22:04:44.897Z,11.77
2024-01-06T22:07:11.983Z,5.38
2024-01-06T22:09:39.051Z,7.05
2024-01-06T22:12:06.439Z,8.18
2024-01-06T22:14:33.507Z,8.57
2024-01-06T22:17:00.503Z,9.50
2024-01-06T22:19:27.544Z,7.93
2024-01-06T22:21:54.972Z,4.68
2024-01-06T22:24:22.461Z,5.18
2024-01-06T22:26:49.514Z,7.45
2024-01-06T22:29:16.540Z,7.25
2024-01-06T22:31:44.147Z,6.65
2024-01-06T22:34:13.723Z,3.65
2024-01-06T22:36:41.411Z,4.78
2024-01-06T22:39:11.457Z,4.38
2024-01-06T22:41:38.693Z,5.03
2024-01-06T22:44:05.789Z,7.78
2024-01-06T22:46:33.505Z,3.95
2024-01-06T22:49:00.698Z,3.70
2024-01-06T22:51:27.903Z,4.88
2024-01-06T22:53:55.161Z,5.43
2024-01-06T22:56:22.782Z,3.70
2024-01-06T22:58:49.807Z,4.00
2024-01-06T23:01:17.101Z,4.75
2024-01-06T23:03:44.720Z,5.07
2024-01-06T23:06:11.888Z,4.82
2024-01-06T23:08:38.954Z,5.78
2024-01-06T23:11:13.115Z,8.32
2024-01-06T23:13:40.351Z,4.25
2024-01-06T23:16:07.644Z,3.63
2024-01-06T23:18:35.195Z,5.22
2024-01-06T23:21:03.421Z,4.05
2024-01-06T23:23:31.044Z,4.30
2024-01-06T23:25:58.380Z,6.13
2024-01-06T23:28:25.914Z,5.43
2024-01-06T23:30:52.968Z,3.85
2024-01-06T23:33:20.118Z,4.28
2024-01-06T23:35:47.238Z,3.47
2024-01-06T23:38:14.320Z,3.92
2024-01-06T23:40:41.380Z,4.15
2024-01-06T23:43:10.396Z,5.40
2024-01-06T23:45:38.205Z,6.28
2024-01-06T23:48:06.192Z,7.10
2024-01-06T23:50:33.429Z,4.65
2024-01-06T23:53:01.288Z,6.75
2024-01-06T23:55:28.345Z,4.28
2024-01-06T23:57:55.451Z,4.32
